createdAt,value
2024-05-09T00:00:01.240Z,8.93
2024-05-09T00:05:00.689Z,8.85
2024-05-09T00:10:01.588Z,8.81
2024-05-09T00:15:00.511Z,8.71
2024-05-09T00:20:00.574Z,8.61
2024-05-09T00:25:00.595Z,8.49
2024-05-09T00:30:00.617Z,8.38
2024-05-09T00:35:00.661Z,8.35
2024-05-09T00:40:00.550Z,8.28
2024-05-09T00:45:00.575Z,8.23
2024-05-09T00:50:01.680Z,8.25
2024-05-09T00:55:00.730Z,8.32
2024-05-09T01:00:01.192Z,8.29
2024-05-09T01:05:01.256Z,8.27
2024-05-09T01:10:00.529Z,8.17
2024-05-09T01:15:00.599Z,8.19
2024-05-09T01:20:00.567Z,8.15
2024-05-09T01:25:00.518Z,8.08
2024-05-09T01:30:00.754Z,8.01
2024-05-09T01:35:00.561Z,7.96
2024-05-09T01:40:00.564Z,7.90
2024-05-09T01:45:00.588Z,7.80
2024-05-09T01:50:01.061Z,7.83
2024-05-09T01:55:04.492Z,7.76
2024-05-09T02:00:00.984Z,7.73
2024-05-09T02:05:00.749Z,7.67
2024-05-09T02:10:00.524Z,7.64
2024-05-09T02:15:00.584Z,7.56
2024-05-09T02:20:00.554Z,7.51
2024-05-09T02:25:00.549Z,7.50
2024-05-09T02:30:00.636Z,7.43
2024-05-09T02:35:00.577Z,7.45
2024-05-09T02:40:00.507Z,7.49
2024-05-09T02:45:01.755Z,7.49
2024-05-09T02:50:00.622Z,7.46
2024-05-09T02:55:00.550Z,7.31
2024-05-09T03:00:01.162Z,7.17
2024-05-09T03:05:00.521Z,7.12
2024-05-09T03:10:00.696Z,7.04
2024-05-09T03:15:00.611Z,6.97
2024-05-09T03:20:01.730Z,6.91
2024-05-09T03:25:00.563Z,6.92
2024-05-09T03:30:00.650Z,6.95
2024-05-09T03:35:00.572Z,7.11
2024-05-09T03:40:00.732Z,7.07
2024-05-09T03:45:00.564Z,6.98
2024-05-09T03:50:00.729Z,7.00
2024-05-09T03:55:00.513Z,6.89
2024-05-09T04:00:01.235Z,6.78
2024-05-09T04:05:00.606Z,6.78
2024-05-09T04:10:00.493Z,6.80
2024-05-09T04:15:00.817Z,6.86
2024-05-09T04:20:00.733Z,6.86
2024-05-09T04:25:00.513Z,6.90
2024-05-09T04:30:00.687Z,7.02
2024-05-09T04:35:00.564Z,7.22
2024-05-09T04:40:00.529Z,7.31
2024-05-09T04:45:00.483Z,7.32
2024-05-09T04:50:00.594Z,7.32
2024-05-09T04:55:00.488Z,7.51
2024-05-09T05:00:01.247Z,7.62
2024-05-09T05:05:00.580Z,7.74
2024-05-09T05:10:00.650Z,7.94
2024-05-09T05:15:00.525Z,8.09
2024-05-09T05:20:00.905Z,8.29
2024-05-09T05:25:00.555Z,8.56
2024-05-09T05:30:00.573Z,8.84
2024-05-09T05:35:00.724Z,9.10
2024-05-09T05:40:00.624Z,9.33
2024-05-09T05:45:00.599Z,9.68
2024-05-09T05:50:00.713Z,10.56
2024-05-09T05:55:00.530Z,11.28
2024-05-09T06:00:01.072Z,11.81
2024-05-09T06:05:01.170Z,12.42
2024-05-09T06:10:00.588Z,13.00
2024-05-09T06:15:00.509Z,13.48
2024-05-09T06:20:00.563Z,13.95
2024-05-09T06:25:00.601Z,14.44
2024-05-09T06:30:00.527Z,14.95
2024-05-09T06:35:00.552Z,15.39
2024-05-09T06:40:00.608Z,15.78
2024-05-09T06:45:00.649Z,16.01
2024-05-09T06:50:00.750Z,16.47
2024-05-09T06:55:00.518Z,17.01
2024-05-09T07:00:01.128Z,17.46
2024-05-09T07:05:00.755Z,17.76
2024-05-09T07:10:00.521Z,17.95
2024-05-09T07:15:00.528Z,18.25
2024-05-09T07:20:00.798Z,18.44
2024-05-09T07:25:00.524Z,19.07
2024-05-09T07:30:00.599Z,19.29
2024-05-09T07:35:00.596Z,19.28
2024-05-09T07:40:00.545Z,19.63
2024-05-09T07:45:20.570Z,19.92
2024-05-09T07:51:47.629Z,20.59
2024-05-09T07:55:00.898Z,20.63
2024-05-09T08:00:01.048Z,20.57
2024-05-09T08:05:00.858Z,20.62
2024-05-09T08:10:00.598Z,20.63
2024-05-09T08:15:00.536Z,20.71
2024-05-09T08:20:02.017Z,20.60
2024-05-09T08:25:00.828Z,20.78
2024-05-09T08:30:00.686Z,21.10
2024-05-09T08:35:00.581Z,21.26
2024-05-09T08:40:00.691Z,21.24
2024-05-09T08:45:00.914Z,21.45
2024-05-09T08:50:01.907Z,21.53
2024-05-09T08:55:00.879Z,21.45
2024-05-09T09:00:06.427Z,21.62
2024-05-09T09:10:01.716Z,21.39
2024-05-09T09:15:00.552Z,21.44
2024-05-09T09:20:00.944Z,21.70
2024-05-09T09:25:00.552Z,21.95
2024-05-09T09:30:00.579Z,22.06
2024-05-09T09:35:00.730Z,22.14
2024-05-09T09:40:02.589Z,22.41
2024-05-09T09:45:05.258Z,22.72
2024-05-09T09:50:01.732Z,23.02
2024-05-09T09:55:02.444Z,23.20
2024-05-09T10:00:01.108Z,22.82
2024-05-09T10:05:01.130Z,22.69
2024-05-09T10:10:00.674Z,23.07
2024-05-09T10:15:06.784Z,23.44
2024-05-09T10:20:11.698Z,22.93
2024-05-09T10:30:06.831Z,22.91
2024-05-09T10:40:01.308Z,23.19
2024-05-09T10:45:01.001Z,23.71
2024-05-09T10:50:01.426Z,24.11
2024-05-09T10:55:02.295Z,24.37
2024-05-09T11:00:01.277Z,24.41
2024-05-09T11:05:00.874Z,24.01
2024-05-09T11:10:00.914Z,23.19
2024-05-09T11:15:00.706Z,22.88
2024-05-09T11:20:00.840Z,22.94
2024-05-09T11:25:00.942Z,23.61
2024-05-09T11:30:00.694Z,23.77
2024-05-09T11:35:00.671Z,23.28
2024-05-09T11:40:00.806Z,22.94
2024-05-09T11:45:00.702Z,22.68
2024-05-09T11:50:00.823Z,22.68
2024-05-09T11:55:00.807Z,22.99
2024-05-09T12:00:01.368Z,22.72
2024-05-09T12:05:00.878Z,22.46
2024-05-09T12:10:00.919Z,22.68
2024-05-09T12:15:00.679Z,22.46
2024-05-09T12:20:00.846Z,22.22
2024-05-09T12:25:00.722Z,22.15
2024-05-09T12:30:00.713Z,21.97
2024-05-09T12:35:00.783Z,21.97
2024-05-09T12:40:00.773Z,21.99
2024-05-09T12:45:00.693Z,22.02
2024-05-09T12:50:01.404Z,22.09
2024-05-09T12:55:02.519Z,21.99
2024-05-09T13:00:01.312Z,21.71
2024-05-09T13:05:00.838Z,21.63
2024-05-09T13:10:01.226Z,21.70
2024-05-09T13:15:00.703Z,21.60
2024-05-09T13:20:00.679Z,21.51
2024-05-09T13:25:00.731Z,21.52
2024-05-09T13:30:00.864Z,21.74
2024-05-09T13:35:00.698Z,21.97
2024-05-09T13:40:01.124Z,21.96
2024-05-09T13:45:00.668Z,21.49
2024-05-09T13:50:01.246Z,21.11
2024-05-09T13:55:00.749Z,20.98
2024-05-09T14:00:01.119Z,20.74
2024-05-09T14:05:00.919Z,20.45
2024-05-09T14:10:00.790Z,20.40
2024-05-09T14:15:00.674Z,20.34
2024-05-09T14:20:00.750Z,20.17
2024-05-09T14:25:00.991Z,20.10
2024-05-09T14:30:00.843Z,20.14
2024-05-09T14:35:00.751Z,20.04
2024-05-09T14:40:00.956Z,20.22
2024-05-09T14:45:01.253Z,20.40
2024-05-09T14:50:00.749Z,20.58
2024-05-09T14:55:01.280Z,20.83
2024-05-09T15:00:02.106Z,21.38
2024-05-09T15:05:01.642Z,21.53
2024-05-09T15:10:01.151Z,21.87
2024-05-09T15:15:00.695Z,22.33
2024-05-09T15:20:00.841Z,22.59
2024-05-09T15:25:00.795Z,22.75
2024-05-09T15:30:00.688Z,23.24
2024-05-09T15:35:00.682Z,22.86
2024-05-09T15:40:00.889Z,22.35
2024-05-09T15:45:00.671Z,21.83
2024-05-09T15:50:00.868Z,22.26
2024-05-09T15:55:00.716Z,22.89
2024-05-09T16:00:01.390Z,23.29
2024-05-09T16:05:00.835Z,23.00
2024-05-09T16:10:00.839Z,22.18
2024-05-09T16:15:00.721Z,21.98
2024-05-09T16:20:00.719Z,21.81
2024-05-09T16:25:00.707Z,22.42
2024-05-09T16:30:00.774Z,22.51
2024-05-09T16:35:00.698Z,22.34
2024-05-09T16:40:00.767Z,22.18
2024-05-09T16:45:00.793Z,21.99
2024-05-09T16:50:00.644Z,21.65
2024-05-09T16:55:00.750Z,21.29
2024-05-09T17:00:01.306Z,21.01
2024-05-09T17:05:00.867Z,20.89
2024-05-09T17:10:00.875Z,21.04
2024-05-09T17:15:00.782Z,21.22
2024-05-09T17:20:00.664Z,20.78
2024-05-09T17:25:00.854Z,20.51
2024-05-09T17:30:01.683Z,20.23
2024-05-09T17:35:00.934Z,20.05
2024-05-09T17:40:00.821Z,19.83
2024-05-09T17:45:00.884Z,19.76
2024-05-09T17:50:01.172Z,19.49
2024-05-09T17:55:00.964Z,19.13
2024-05-09T18:00:01.125Z,18.92
2024-05-09T18:05:01.361Z,18.60
2024-05-09T18:10:00.857Z,18.26
2024-05-09T18:15:00.859Z,18.07
2024-05-09T18:20:00.794Z,17.91
2024-05-09T18:25:00.731Z,17.53
2024-05-09T18:30:00.981Z,17.19
2024-05-09T18:35:00.845Z,16.89
2024-05-09T18:40:00.777Z,16.63
2024-05-09T18:45:00.702Z,16.39
2024-05-09T18:50:00.835Z,16.18
2024-05-09T18:55:00.766Z,15.96
2024-05-09T19:00:01.129Z,15.76
2024-05-09T19:05:00.851Z,15.54
2024-05-09T19:10:00.836Z,15.34
2024-05-09T19:15:00.669Z,15.12
2024-05-09T19:20:01.133Z,14.93
2024-05-09T19:25:00.691Z,14.80
2024-05-09T19:30:00.677Z,14.64
2024-05-09T19:35:00.669Z,14.47
2024-05-09T19:40:00.927Z,14.34
2024-05-09T19:45:00.706Z,14.25
2024-05-09T19:50:01.092Z,14.15
2024-05-09T19:55:00.793Z,14.03
2024-05-09T20:00:01.108Z,13.93
2024-05-09T20:05:01.006Z,13.88
2024-05-09T20:10:00.799Z,13.83
2024-05-09T20:15:00.694Z,13.84
2024-05-09T20:20:00.888Z,13.83
2024-05-09T20:25:00.792Z,13.83
2024-05-09T20:30:00.690Z,13.86
2024-05-09T20:35:00.702Z,13.90
2024-05-09T20:40:00.744Z,13.96
2024-05-09T20:45:00.681Z,13.96
2024-05-09T20:50:00.693Z,13.99
2024-05-09T20:55:01.052Z,14.00
2024-05-09T21:00:02.536Z,13.96
2024-05-09T21:05:00.990Z,13.93
2024-05-09T21:10:00.722Z,13.87
2024-05-09T21:15:00.678Z,13.80
2024-05-09T21:20:00.792Z,13.73
2024-05-09T21:25:00.737Z,13.67
2024-05-09T21:30:00.768Z,13.65
2024-05-09T21:35:00.692Z,13.61
2024-05-09T21:40:00.786Z,13.62
2024-05-09T21:45:00.674Z,13.59
2024-05-09T21:50:00.665Z,13.64
2024-05-09T21:55:00.836Z,13.66
2024-05-09T22:00:01.395Z,13.69
2024-05-09T22:05:00.912Z,13.71
2024-05-09T22:10:00.976Z,13.70
2024-05-09T22:15:00.691Z,13.69
2024-05-09T22:20:00.716Z,13.68
2024-05-09T22:25:01.048Z,13.69
2024-05-09T22:30:00.682Z,13.66
2024-05-09T22:35:00.959Z,13.60
2024-05-09T22:40:02.413Z,13.53
2024-05-09T22:45:00.698Z,13.46
2024-05-09T22:50:00.659Z,13.34
2024-05-09T22:55:00.783Z,13.24
2024-05-09T23:00:01.338Z,13.17
2024-05-09T23:05:00.935Z,13.05
2024-05-09T23:10:00.897Z,12.95
2024-05-09T23:15:00.695Z,12.83
2024-05-09T23:20:00.714Z,12.76
2024-05-09T23:25:00.815Z,12.71
2024-05-09T23:30:00.714Z,12.69
2024-05-09T23:35:00.816Z,12.67
2024-05-09T23:40:00.787Z,12.71
2024-05-09T23:45:00.737Z,12.68
2024-05-09T23:50:00.822Z,12.69
2024-05-09T23:55:00.858Z,12.68
